Terminal Aerodrome Forecast
Issued by NWS Goodland, KS

Home | Current Version | Previous Version | Text Only | Print | Product List | Glossary On
Versions: 1 2 3 4 5 6 7 8 9 10 11 12 13 14 15 16 17 18
000
FTUS43 KGLD 241200 AAA
TAFGLD
TAF AMD
KGLD 241203Z 2412/2512 19014KT P6SM FEW250
      TEMPO 2412/2414 4SM BR
     FM241500 20020G30KT P6SM SCT200
     FM250100 19010KT P6SM SCT070 BKN150
     FM250700 25009KT P6SM SCT200=

USA.gov is the U.S. government's official web portal to all federal, state and local government web resources and services.